Time;durP1;ratioP1;P1;durP2;ratioP2;P2;SDS_P1;SDS_P2;PMS_P1;PMS_P2;Temp;Humidity;BMP_temperature;BMP_pressure;BME280_temperature;BME280_humidity;BME280_pressure;Samples;Min_cycle;Max_cycle;Signal;HPM_P1;HPM_P2
2023/02/23 00:02:20;;;;;;;70.00;43.85;;;11.10;99.90;;;11.18;98.44;101195.13;5032214;28;19928;-70
2023/02/23 00:04:48;;;;;;;60.55;40.55;;;11.00;99.90;;;11.16;98.50;101201.28;5033964;28;20124;-71
2023/02/23 00:07:19;;;;;;;67.43;42.33;;;10.90;99.90;;;11.18;98.77;101203.06;5034573;28;20079;-71
2023/02/23 00:09:47;;;;;;;;;;;10.90;99.90;;;11.14;98.84;101201.31;5036381;28;20148;-71
2023/02/23 00:12:16;;;;;;;78.70;49.47;;;11.00;99.90;;;11.18;98.98;101207.47;5035805;28;19925;-71
2023/02/23 00:14:46;;;;;;;81.93;50.13;;;10.90;99.90;;;10.98;98.96;101172.19;5034360;28;20084;-71
2023/02/23 00:17:16;;;;;;;74.18;46.40;;;10.90;99.90;;;11.19;99.13;101211.91;5035578;28;20065;-71
2023/02/23 00:19:48;;;;;;;77.28;47.72;;;11.00;99.90;;;10.90;98.86;101151.91;5035495;28;20562;-71
2023/02/23 00:22:17;;;;;;;76.38;46.25;;;11.00;99.90;;;11.29;98.79;101219.81;5035507;28;20045;-71
2023/02/23 00:24:46;;;;;;;75.40;47.15;;;11.10;99.90;;;11.35;98.76;101217.16;5035489;28;20033;-71
2023/02/23 00:27:20;;;;;;;70.22;45.08;;;11.10;99.90;;;11.38;98.46;101213.63;5035738;28;20049;-71
2023/02/23 00:29:50;;;;;;;72.20;45.60;;;11.10;99.90;;;11.25;98.35;101178.31;5034136;28;20053;-72
2023/02/23 00:32:22;;;;;;;70.60;46.10;;;11.20;99.90;;;11.43;98.14;101204.78;5034101;28;20053;-71
2023/02/23 00:34:51;;;;;;;69.90;45.07;;;11.20;99.90;;;11.46;97.92;101204.75;5034170;28;20084;-71
2023/02/23 00:37:21;;;;;;;66.97;43.70;;;11.20;99.90;;;11.27;97.91;101176.56;5034109;28;20314;-71
2023/02/23 00:39:50;;;;;;;65.43;43.35;;;11.20;99.90;;;11.37;97.98;101188.91;5033883;28;20095;-71
2023/02/23 00:42:19;;;;;;;65.90;44.97;;;11.20;99.90;;;11.43;98.04;101202.13;5035247;28;20042;-71
2023/02/23 00:44:49;;;;;;;69.65;45.13;;;11.20;99.90;;;11.38;98.17;101189.78;5034109;28;20045;-71
2023/02/23 00:47:18;;;;;;;64.63;42.77;;;11.20;99.90;;;11.37;98.40;101188.91;5035245;28;20385;-72
2023/02/23 00:49:46;;;;;;;63.63;43.10;;;11.10;99.90;;;11.39;98.63;101186.22;5033745;28;20160;-71
2023/02/23 00:52:14;;;;;;;66.63;43.67;;;11.20;99.90;;;11.41;98.54;101192.41;5033622;28;20405;-71
2023/02/23 00:54:43;;;;;;;70.60;42.90;;;11.10;99.90;;;11.43;98.35;101190.63;5034824;28;20444;-71
2023/02/23 00:57:11;;;;;;;70.43;43.53;;;11.10;99.90;;;11.46;98.21;101198.56;5033707;28;20044;-72
2023/02/23 00:59:40;;;;;;;69.72;45.50;;;11.20;99.90;;;11.47;98.04;101203.00;5035016;28;20107;-71
2023/02/23 01:02:10;;;;;;;71.10;44.47;;;11.20;99.90;;;11.01;97.75;101121.91;5034853;28;20049;-71
2023/02/23 01:04:39;;;;;;;62.87;42.30;;;11.20;99.90;;;11.47;97.64;101200.34;5034766;28;20045;-71
2023/02/23 01:07:07;;;;;;;65.32;42.45;;;11.20;99.90;;;11.42;97.64;101208.28;5034855;28;20284;-72
2023/02/23 01:09:36;;;;;;;64.18;41.42;;;11.10;99.90;;;11.45;97.96;101204.75;5033483;28;20049;-71
2023/02/23 01:12:06;;;;;;;62.15;40.33;;;11.20;99.90;;;11.42;98.03;101215.38;5033451;28;20492;-71
2023/02/23 01:14:36;;;;;;;60.35;39.80;;;11.20;99.90;;;11.37;98.33;101209.19;5033679;28;20056;-71
2023/02/23 01:17:06;;;;;;;61.10;40.92;;;11.10;99.90;;;11.35;98.43;101203.00;5034666;28;20099;-71
2023/02/23 01:19:37;;;;;;;60.45;40.60;;;11.10;99.90;;;11.36;98.55;101208.28;5033143;28;20049;-71
2023/02/23 01:22:06;;;;;;;67.70;43.00;;;11.10;99.90;;;11.35;98.62;101203.91;5033376;28;20053;-71
2023/02/23 01:24:34;;;;;;;64.78;41.45;;;11.00;99.90;;;11.39;98.65;101205.66;5034327;28;20658;-71
2023/02/23 01:27:05;;;;;;;65.28;41.55;;;11.10;99.90;;;11.51;98.47;101207.41;5033206;28;20136;-71
2023/02/23 01:29:34;;;;;;;63.50;41.55;;;11.20;99.90;;;11.54;98.00;101205.63;5034479;28;20041;-71
2023/02/23 01:32:02;;;;;;;68.78;44.33;;;11.30;99.90;;;11.46;97.83;101195.91;5032657;28;20071;-72
2023/02/23 01:34:32;;;;;;;63.10;41.80;;;11.30;99.90;;;11.50;97.59;101200.31;5033239;28;20061;-72
2023/02/23 01:37:03;;;;;;;61.20;40.20;;;11.30;99.90;;;11.48;97.58;101213.56;5034331;28;20044;-72
2023/02/23 01:39:33;;;;;;;66.35;41.75;;;11.20;99.90;;;11.49;97.76;101210.06;5032891;28;20041;-71
2023/02/23 01:42:04;;;;;;;62.05;40.90;;;11.20;99.90;;;11.38;97.89;101203.88;5034221;28;20448;-72
2023/02/23 01:45:19;;;;;;;61.25;40.70;;;11.20;99.90;;;11.46;97.91;101217.09;5032512;28;20042;-73
2023/02/23 01:47:48;;;;;;;63.58;41.70;;;11.20;99.90;;;11.51;98.19;101218.88;5020131;28;20053;-72
2023/02/23 01:50:18;;;;;;;65.05;43.33;;;11.20;99.90;;;11.56;97.76;101214.44;5033784;28;20050;-72
2023/02/23 01:52:52;;;;;;;70.97;43.85;;;11.30;99.90;;;11.56;97.55;101214.44;5033849;28;20063;-73
2023/02/23 01:55:23;;;;;;;64.35;42.38;;;11.30;99.90;;;11.55;97.36;101204.75;5032585;28;20508;-71
2023/02/23 01:57:58;;;;;;;66.80;42.40;;;11.30;99.90;;;11.58;97.22;101210.03;5034176;28;20056;-71
2023/02/23 02:00:27;;;;;;;65.43;42.35;;;11.40;99.90;;;11.54;97.21;101208.25;5032537;28;20057;-72
2023/02/23 02:02:57;;;;;;;65.50;41.30;;;11.30;99.90;;;11.53;97.60;101217.13;5032650;28;20046;-72
2023/02/23 02:05:28;;;;;;;63.67;41.65;;;11.30;99.90;;;11.48;97.98;101216.22;5032240;28;20049;-72
2023/02/23 02:07:59;;;;;;;65.00;42.22;;;11.20;99.90;;;11.50;98.13;101219.75;5033785;28;20049;-71
2023/02/23 02:10:45;;;;;;;73.18;44.50;;;11.20;99.90;;;11.57;97.93;101216.22;5033715;28;20079;-71
2023/02/23 02:13:23;;;;;;;65.07;42.30;;;11.30;99.90;;;11.63;97.34;101224.13;5032298;28;20408;-71
2023/02/23 02:16:45;;;;;;;63.92;41.95;;;11.40;99.90;;;11.62;97.26;101225.03;5033349;28;20463;-71
2023/02/23 02:20:27;;;;;;;64.60;39.63;;;11.40;99.90;;;11.52;97.33;101219.75;4987387;28;20053;-71
2023/02/23 02:23:47;;;;;;;65.93;41.83;;;11.30;99.90;;;11.50;98.04;101211.81;5033198;28;20531;-72
2023/02/23 02:26:33;;;;;;;70.10;43.13;;;11.20;99.90;;;11.45;98.11;101196.81;5032955;28;20069;-72
2023/02/23 02:29:58;;;;;;;64.90;40.33;;;11.30;99.90;;;11.59;98.02;101218.84;5032100;28;20053;-72
2023/02/23 02:32:48;;;;;;;66.47;42.38;;;11.30;99.90;;;11.65;97.70;101211.78;5031493;28;20057;-72
2023/02/23 02:35:52;;;;;;;68.43;41.95;;;11.40;99.90;;;11.56;97.85;101213.56;5033223;28;20128;-72
2023/02/23 02:38:49;;;;;;;69.32;42.85;;;11.30;99.90;;;11.55;97.99;101207.41;5031790;28;20081;-71
2023/02/23 02:41:30;;;;;;;72.70;45.17;;;11.30;99.90;;;11.51;98.24;101212.69;5033210;28;20480;-72
2023/02/23 02:44:08;;;;;;;69.50;43.70;;;11.20;99.90;;;11.51;98.40;101212.69;5033095;28;20053;-72
2023/02/23 02:46:40;;;;;;;73.57;44.33;;;11.20;99.90;;;11.50;98.58;101206.50;5031630;28;20053;-71
2023/02/23 02:49:17;;;;;;;73.38;44.47;;;11.20;99.90;;;11.48;98.64;101208.28;5033070;28;20083;-72
2023/02/23 02:51:53;;;;;;;72.10;43.35;;;11.20;99.90;;;11.43;98.89;101207.41;5033033;28;20041;-72
2023/02/23 02:54:30;;;;;;;72.13;44.13;;;11.10;99.90;;;11.39;99.37;101204.78;5032989;28;20076;-71
2023/02/23 02:57:03;;;;;;;73.10;44.65;;;11.10;99.90;;;11.36;99.48;101205.66;5032883;28;20098;-71
2023/02/23 04:19:18;;;;;;;69.43;43.03;;;10.40;99.90;;;10.75;100.00;101222.47;5035899;28;20048;-71
2023/02/23 04:21:47;;;;;;;74.65;43.55;;;10.40;99.90;;;10.82;100.00;101226.88;5034596;28;20447;-71
2023/02/23 04:24:15;;;;;;;76.68;44.97;;;10.50;99.90;;;10.94;100.00;101234.81;5035423;28;20064;-71
2023/02/23 04:26:44;;;;;;;72.57;43.78;;;10.60;99.90;;;11.01;100.00;101241.00;5034490;28;20049;-71
2023/02/23 04:29:13;;;;;;;79.47;44.80;;;10.70;99.90;;;11.06;100.00;101234.84;5035438;28;20041;-71
2023/02/23 04:31:41;;;;;;;70.43;43.10;;;10.70;99.90;;;11.14;100.00;101246.31;5035237;28;20038;-71
2023/02/23 04:34:10;;;;;;;72.20;41.80;;;10.80;99.90;;;11.20;100.00;101245.41;5035604;28;20073;-71
2023/02/23 04:36:39;;;;;;;68.53;41.53;;;10.90;99.90;;;11.17;100.00;101246.28;5035229;28;20133;-70
2023/02/23 04:39:08;;;;;;;71.57;43.07;;;10.90;99.90;;;11.15;100.00;101242.75;5035518;28;20045;-71
2023/02/23 04:41:36;;;;;;;72.90;43.35;;;10.90;99.90;;;11.12;100.00;101248.06;5035427;28;20369;-71
2023/02/23 04:44:05;;;;;;;69.35;42.03;;;10.80;99.90;;;11.06;100.00;101224.25;5034199;28;20076;-71
2023/02/23 04:46:34;;;;;;;69.57;42.90;;;10.90;99.90;;;11.17;100.00;101242.78;5035404;28;20033;-71
2023/02/23 04:49:02;;;;;;;71.68;42.63;;;10.90;99.90;;;11.08;100.00;101225.13;5035351;28;20053;-71
2023/02/23 04:51:32;;;;;;;67.35;42.08;;;10.90;99.90;;;11.31;100.00;101259.50;5034344;28;20128;-71
2023/02/23 04:54:02;;;;;;;69.80;42.65;;;11.00;99.90;;;11.27;100.00;101250.69;5034986;28;20408;-71
2023/02/23 04:56:32;;;;;;;70.70;42.33;;;11.00;99.90;;;11.34;99.96;101255.09;5035286;28;20412;-72
2023/02/23 04:59:00;;;;;;;73.57;43.70;;;11.00;99.90;;;11.33;99.80;101255.09;5034905;28;20124;-71
2023/02/23 05:01:29;;;;;;;76.85;45.65;;;11.00;99.90;;;11.30;99.56;101257.75;5034940;28;20116;-71
2023/02/23 05:03:57;;;;;;;72.63;44.15;;;11.00;99.90;;;11.27;99.49;101266.59;5035012;28;20569;-71
2023/02/23 05:06:26;;;;;;;75.03;43.95;;;11.00;99.90;;;11.28;99.57;101263.06;5034883;28;20408;-71
2023/02/23 05:08:54;;;;;;;77.10;44.47;;;11.00;99.90;;;11.26;99.57;101272.78;5034691;28;20034;-71
2023/02/23 05:11:25;;;;;;;75.57;45.15;;;11.00;99.90;;;11.23;99.35;101267.47;5034641;28;20062;-72
2023/02/23 05:13:54;;;;;;;80.75;46.53;;;11.00;99.90;;;11.22;99.70;101275.41;5034847;28;20451;-72
2023/02/23 05:16:22;;;;;;;79.15;46.50;;;10.90;99.90;;;11.26;99.74;101277.19;5034589;28;20073;-72
2023/02/23 05:18:51;;;;;;;82.45;48.38;;;11.00;99.90;;;11.34;99.60;101286.88;5034789;28;20041;-71
2023/02/23 05:21:19;;;;;;;81.07;47.35;;;11.00;99.90;;;11.23;99.57;101288.66;5034512;28;20459;-71
2023/02/23 05:23:48;;;;;;;81.70;46.45;;;10.90;99.90;;;11.21;99.90;101285.13;5034724;28;20088;-71
2023/02/23 05:26:17;;;;;;;79.38;46.35;;;10.90;99.90;;;11.16;100.00;101284.25;5033331;28;20374;-71
2023/02/23 05:28:47;;;;;;;84.60;48.72;;;10.90;99.90;;;11.13;100.00;101262.19;5034376;28;20128;-72
2023/02/23 05:31:16;;;;;;;85.18;48.13;;;10.90;99.90;;;11.13;100.00;101275.44;5033328;28;20080;-71
2023/02/23 05:33:44;;;;;;;85.68;49.25;;;10.90;99.90;;;11.24;100.00;101289.53;5032753;28;20049;-71
2023/02/23 05:36:15;;;;;;;82.53;48.15;;;10.90;99.90;;;11.21;100.00;101289.53;5034790;28;20051;-71
2023/02/23 05:38:45;;;;;;;84.53;47.55;;;10.90;99.90;;;11.01;100.00;101265.72;5034204;28;20507;-71
2023/02/23 05:41:18;;;;;;;80.97;46.17;;;10.90;99.90;;;11.25;100.00;101297.47;5034394;28;20489;-72
2023/02/23 05:43:51;;;;;;;86.00;49.65;;;10.90;99.90;;;11.28;99.87;101297.50;5033083;28;20714;-71
2023/02/23 05:46:22;;;;;;;78.00;45.10;;;10.90;99.90;;;11.28;100.00;101297.50;5034114;28;20045;-71
2023/02/23 05:48:55;;;;;;;82.05;46.53;;;10.90;99.90;;;11.17;99.90;101293.94;5034006;28;20128;-71
2023/02/23 05:51:23;;;;;;;79.25;46.42;;;10.90;99.90;;;10.75;100.00;101226.03;5034176;28;20076;-71
2023/02/23 05:53:51;;;;;;;81.38;46.78;;;10.80;99.90;;;11.09;100.00;101285.13;5034036;28;20038;-71
2023/02/23 05:56:20;;;;;;;77.97;46.25;;;10.80;99.90;;;11.12;100.00;101290.44;5034116;28;20127;-71
2023/02/23 05:58:51;;;;;;;74.50;44.72;;;10.80;99.90;;;11.12;100.00;101285.13;5033723;28;20070;-71
2023/02/23 06:01:21;;;;;;;84.03;47.20;;;10.80;99.90;;;11.16;100.00;101293.94;5032138;28;20123;-71
2023/02/23 06:03:49;;;;;;;78.67;46.73;;;10.80;99.90;;;11.18;100.00;101295.72;5033623;28;20503;-71
2023/02/23 06:06:19;;;;;;;85.18;48.10;;;10.80;99.90;;;11.06;99.69;101290.44;5033725;28;20041;-71
2023/02/23 06:08:48;;;;;;;81.88;47.08;;;10.80;99.90;;;11.01;99.95;101297.50;5033580;28;20038;-71
2023/02/23 06:11:16;;;;;;;82.93;46.17;;;10.80;99.90;;;11.00;100.00;101305.41;5032380;28;20492;-71
2023/02/23 06:13:45;;;;;;;82.05;46.47;;;10.70;99.90;;;10.93;100.00;101303.66;5033342;28;20077;-71
2023/02/23 06:16:15;;;;;;;82.72;48.80;;;10.60;99.90;;;10.91;100.00;101282.47;5033609;28;20141;-71
2023/02/23 06:18:44;;;;;;;80.13;46.03;;;10.70;99.90;;;10.33;100.00;101206.56;5032525;28;20053;-71
2023/02/23 06:21:13;;;;;;;79.95;47.28;;;10.60;99.90;;;10.90;100.00;101308.06;5033318;28;20128;-71
2023/02/23 06:23:41;;;;;;;82.20;47.10;;;10.60;99.90;;;10.96;100.00;101308.94;5033369;28;20352;-71
2023/02/23 06:26:10;;;;;;;85.07;47.67;;;10.60;99.90;;;11.11;100.00;101311.63;5033232;28;20113;-71
2023/02/23 06:28:38;;;;;;;83.57;47.75;;;10.70;99.90;;;10.97;100.00;101322.19;5033249;28;20041;-71
2023/02/23 06:31:06;;;;;;;79.28;46.35;;;10.70;99.90;;;11.11;100.00;101304.53;5033199;28;20046;-72
2023/02/23 06:33:36;;;;;;;86.40;47.95;;;10.80;99.90;;;11.06;100.00;101306.31;5033421;28;20060;-71
2023/02/23 06:36:05;;;;;;;85.57;47.60;;;10.70;99.90;;;11.03;100.00;101308.97;5032016;28;20500;-71
2023/02/23 06:38:34;;;;;;;86.35;48.22;;;10.70;99.90;;;11.03;100.00;101316.91;5033396;28;20135;-71
2023/02/23 06:41:08;;;;;;;85.97;48.47;;;10.70;99.90;;;10.95;100.00;101310.72;5031950;28;20046;-71
2023/02/23 06:43:37;;;;;;;84.32;48.08;;;10.60;99.90;;;10.92;100.00;101313.34;5033102;28;20088;-71
2023/02/23 06:46:05;;;;;;;82.53;48.00;;;10.60;99.90;;;10.98;100.00;101323.94;5033037;28;20041;-71
2023/02/23 06:48:34;;;;;;;78.25;45.67;;;10.70;99.90;;;10.95;100.00;101329.25;5033029;28;20092;-71
2023/02/23 06:51:04;;;;;;;83.20;47.63;;;10.60;99.90;;;10.87;100.00;101323.06;5032635;28;20049;-71
2023/02/23 06:53:32;;;;;;;81.05;46.53;;;10.50;99.90;;;10.80;100.00;101335.38;5032714;28;20522;-71
2023/02/23 06:56:02;;;;;;;85.43;48.17;;;10.50;99.90;;;10.88;100.00;101338.03;5032690;28;20459;-71
2023/02/23 06:58:30;;;;;;;84.65;46.75;;;10.60;99.90;;;10.90;100.00;101333.63;5032744;28;20061;-71
2023/02/23 07:00:59;;;;;;;77.95;46.38;;;10.60;99.90;;;11.03;100.00;101347.78;5033246;28;20049;-71
2023/02/23 07:03:27;;;;;;;79.93;45.65;;;10.70;99.90;;;11.09;99.71;101343.34;5031417;28;20140;-71
2023/02/23 07:05:56;;;;;;;81.10;46.00;;;10.80;99.90;;;11.19;99.51;101350.44;5031597;28;20128;-71
2023/02/23 07:08:25;;;;;;;84.25;46.88;;;10.90;99.90;;;11.28;99.16;101363.69;5032497;28;20518;-71
2023/02/23 07:10:55;;;;;;;86.57;47.27;;;11.00;99.90;;;11.21;98.71;101359.25;5032714;28;20050;-71
2023/02/23 07:13:23;;;;;;;84.82;46.95;;;11.00;99.90;;;11.04;98.80;101381.28;5032007;28;20650;-71
2023/02/23 07:15:57;;;;;;;82.43;46.75;;;10.80;99.90;;;10.90;99.00;101384.81;5032439;28;20051;-71
2023/02/23 07:18:26;;;;;;;83.43;47.28;;;10.70;99.90;;;10.78;100.00;101389.19;5032736;28;20137;-71
2023/02/23 07:20:54;;;;;;;80.25;45.25;;;10.50;99.90;;;10.77;100.00;101400.66;5031318;28;20168;-71
2023/02/23 07:23:22;;;;;;;78.78;45.45;;;10.50;99.90;;;10.78;100.00;101399.78;5032615;28;20183;-71
2023/02/23 07:25:55;;;;;;;80.65;45.25;;;10.50;99.90;;;10.80;100.00;101405.97;5032423;28;20492;-71
2023/02/23 07:28:24;;;;;;;80.53;43.63;;;10.50;99.90;;;10.77;99.96;101408.59;5031538;28;20149;-71
2023/02/23 07:30:56;;;;;;;77.90;46.40;;;10.50;99.90;;;10.65;100.00;101409.41;5030979;28;20144;-71
2023/02/23 07:33:25;;;;;;;74.60;42.90;;;10.40;99.90;;;10.78;100.00;101410.38;5032383;28;20049;-72
2023/02/23 07:35:53;;;;;;;75.93;44.05;;;10.50;99.90;;;10.83;100.00;101408.59;5031344;28;20045;-71
2023/02/23 07:38:21;;;;;;;72.45;40.95;;;10.50;99.90;;;10.80;99.83;101420.06;5031306;28;20057;-73
2023/02/23 07:40:51;;;;;;;73.68;40.20;;;10.50;99.90;;;10.73;99.67;101420.03;5032509;28;20044;-72
2023/02/23 07:43:21;;;;;;;76.35;42.80;;;10.50;99.90;;;10.65;100.00;101427.06;5032304;28;20069;-72
2023/02/23 07:45:50;;;;;;;72.45;40.88;;;10.30;99.90;;;10.63;100.00;101427.06;5032232;28;20037;-72
2023/02/23 07:48:19;;;;;;;75.72;39.78;;;10.40;99.90;;;10.63;100.00;101436.75;5032435;28;20069;-72
2023/02/23 07:50:48;;;;;;;71.97;39.15;;;10.40;99.90;;;10.69;100.00;101432.38;5032020;28;20143;-70
2023/02/23 07:53:16;;;;;;;73.70;40.00;;;10.40;99.90;;;10.44;100.00;101397.88;5031882;28;20038;-71
2023/02/23 07:55:44;;;;;;;71.00;39.70;;;10.40;99.90;;;10.65;100.00;101437.63;5031246;28;20038;-71
2023/02/23 07:58:14;;;;;;;66.53;38.22;;;10.40;99.90;;;10.69;100.00;101436.78;5032094;28;20056;-72
2023/02/23 08:00:43;;;;;;;64.97;38.23;;;10.40;99.90;;;10.77;100.00;101435.03;5032437;28;20049;-72
2023/02/23 08:03:11;;;;;;;63.28;37.13;;;10.40;99.90;;;10.88;100.00;101443.91;5030973;28;20849;-71
2023/02/23 08:05:40;;;;;;;67.13;38.05;;;10.50;99.90;;;10.81;100.00;101450.06;5032066;28;20042;-71
2023/02/23 08:08:09;;;;;;;66.93;37.03;;;10.50;99.90;;;10.78;100.00;101456.22;5032188;28;20045;-72
2023/02/23 08:10:38;;;;;;;59.28;34.72;;;10.50;99.90;;;10.87;100.00;101455.38;5031960;28;20042;-72
2023/02/23 08:13:07;;;;;;;58.13;34.47;;;10.60;99.90;;;10.73;100.00;101459.72;5031918;28;20045;-69
2023/02/23 08:15:36;;;;;;;57.13;32.90;;;10.50;99.90;;;10.64;100.00;101459.69;5031865;28;20067;-75
2023/02/23 08:18:05;;;;;;;48.70;28.90;;;10.40;99.90;;;10.48;100.00;101449.91;5031990;28;20100;-75
2023/02/23 08:20:34;;;;;;;42.67;27.35;;;10.30;99.90;;;10.52;100.00;101470.19;5030909;28;20046;-73
2023/02/23 08:23:02;;;;;;;45.15;26.42;;;10.30;99.90;;;10.72;100.00;101460.59;5031927;28;20590;-71
2023/02/23 08:25:31;;;;;;;48.08;26.33;;;10.40;99.90;;;10.67;100.00;101457.94;5032184;28;20041;-73
2023/02/23 08:28:03;;;;;;;39.88;24.45;;;10.40;99.90;;;10.85;100.00;101459.78;5035546;28;20132;-73
2023/02/23 08:30:32;;;;;;;38.78;22.50;;;10.60;99.90;;;11.03;99.88;101469.56;5034855;28;20064;-71
2023/02/23 08:33:04;;;;;;;33.20;23.17;;;10.80;99.90;;;11.08;98.75;101466.03;5035538;28;20140;-70
2023/02/23 08:35:32;;;;;;;35.22;21.98;;;10.90;99.90;;;10.96;98.74;101447.47;5035358;28;20084;-71
2023/02/23 08:38:01;;;;;;;35.50;22.35;;;10.90;99.90;;;11.25;98.68;101469.59;5035647;28;20037;-72
2023/02/23 08:40:29;;;;;;;35.50;22.58;;;11.00;99.90;;;10.68;98.58;101432.38;5035582;28;20080;-72
2023/02/23 08:42:57;;;;;;;35.03;21.75;;;10.80;99.90;;;10.95;99.02;101477.47;5035440;28;20041;-72
2023/02/23 08:45:28;;;;;;;32.70;19.95;;;10.70;99.90;;;10.78;99.54;101482.66;5035449;28;20045;-73
2023/02/23 08:47:57;;;;;;;28.48;18.98;;;10.60;99.90;;;11.03;98.46;101491.63;5035481;28;20483;-72
2023/02/23 08:50:26;;;;;;;29.52;18.25;;;10.80;99.90;;;10.59;97.97;101474.63;5035026;28;20045;-74
2023/02/23 08:52:55;;;;;;;26.88;17.60;;;10.60;99.90;;;10.58;98.81;101491.41;5035039;28;20045;-73
2023/02/23 08:55:23;;;;;;;26.27;17.92;;;10.40;99.90;;;10.74;98.93;101498.53;5034793;28;20480;-74
2023/02/23 08:57:52;;;;;;;26.75;17.73;;;10.50;99.90;;;10.74;98.51;101486.19;5035110;28;20088;-74
2023/02/23 09:00:22;;;;;;;27.13;17.90;;;10.50;99.90;;;10.60;98.70;101501.13;5035067;28;20472;-72
2023/02/23 09:02:50;;;;;;;29.15;17.33;;;10.40;99.90;;;10.74;98.07;101509.13;5035166;28;20052;-72
2023/02/23 09:05:19;;;;;;;25.20;16.65;;;10.50;99.90;;;10.91;97.37;101499.50;5034655;28;20042;-73
2023/02/23 09:07:49;;;;;;;26.27;16.23;;;10.60;99.90;;;10.78;96.86;101497.69;5034631;28;20045;-72
2023/02/23 09:10:22;;;;;;;26.40;16.38;;;10.60;99.90;;;10.90;96.74;101505.66;5033798;28;20140;-72
2023/02/23 09:12:51;;;;;;;26.98;17.52;;;10.70;99.90;;;10.99;96.56;101495.13;5034942;28;20045;-72
2023/02/23 09:15:20;;;;;;;27.48;17.08;;;10.90;99.90;;;10.87;96.11;101505.66;5033492;28;20099;-71
2023/02/23 09:17:49;;;;;;;24.50;16.85;;;10.80;99.90;;;10.99;96.78;101515.41;5034599;28;20064;-68
2023/02/23 09:20:18;;;;;;;23.67;16.52;;;10.80;99.90;;;10.93;97.02;101513.63;5034517;28;20060;-71
2023/02/23 09:22:48;;;;;;;26.23;17.30;;;10.80;99.90;;;11.03;96.50;101526.03;5034432;28;20052;-70
2023/02/23 09:25:17;;;;;;;23.50;16.20;;;10.80;99.90;;;11.11;95.89;101524.28;5034552;28;20067;-72
2023/02/23 09:27:46;;;;;;;25.13;17.30;;;10.90;99.90;;;10.95;96.67;101519.81;5033654;28;20567;-71
2023/02/23 09:30:19;;;;;;;24.52;17.75;;;10.80;99.90;;;11.07;96.07;101532.22;5034437;28;20042;-71
2023/02/23 09:32:48;;;;;;;24.50;16.95;;;10.80;99.90;;;11.23;96.08;101515.50;5034330;28;20081;-72
2023/02/23 09:35:17;;;;;;;24.55;18.42;;;11.00;99.90;;;11.25;95.92;101519.91;5034071;28;20041;-72
2023/02/23 09:37:49;;;;;;;27.17;18.67;;;11.00;99.90;;;11.32;95.60;101508.50;5032879;28;20566;-71
2023/02/23 09:40:22;;;;;;;26.83;18.00;;;11.20;99.90;;;11.47;94.41;101520.88;5034174;28;20061;-71
2023/02/23 09:43:03;;;;;;;25.27;18.13;;;11.30;99.90;;;10.89;93.50;101441.28;5033133;28;20562;-71
2023/02/23 09:45:39;;;;;;;;;;;11.30;99.90;;;11.09;94.71;101528.69;5034798;28;20381;-73
2023/02/23 09:48:17;;;;;;;27.10;19.05;;;11.00;99.90;;;11.33;94.08;101522.59;5034531;28;20407;-72
2023/02/23 09:50:50;;;;;;;28.98;19.02;;;11.10;99.90;;;11.28;93.93;101529.66;5034202;28;20099;-71
2023/02/23 09:53:37;;;;;;;29.08;20.05;;;11.10;99.90;;;10.72;93.86;101427.06;5034105;28;20045;-71
2023/02/23 09:56:13;;;;;;;27.90;18.52;;;11.10;99.90;;;11.16;94.24;101524.31;5033938;28;20484;-71
2023/02/23 09:58:42;;;;;;;26.05;18.85;;;11.00;99.90;;;11.06;94.22;101527.78;5033982;28;20060;-71
2023/02/23 10:01:45;;;;;;;25.90;17.63;;;10.90;99.90;;;11.21;93.74;101531.38;5032800;28;20080;-72
2023/02/23 10:04:21;;;;;;;28.88;18.92;;;11.00;99.90;;;10.93;94.77;101537.44;5033763;28;20095;-71
2023/02/23 10:06:57;;;;;;;28.02;17.30;;;10.80;99.90;;;10.89;94.53;101540.97;5033620;28;20540;-71
2023/02/23 10:09:48;;;;;;;26.17;18.48;;;10.80;99.90;;;10.89;95.60;101525.06;5032576;28;20732;-72
2023/02/23 10:12:27;;;;;;;26.17;17.27;;;10.70;99.90;;;11.22;94.42;101534.91;5033412;28;20120;-71
2023/02/23 10:15:11;;;;;;;25.33;18.48;;;10.90;99.90;;;11.41;94.50;101527.03;5033412;28;20045;-71
2023/02/23 10:17:49;;;;;;;27.90;17.30;;;11.20;99.90;;;11.53;93.76;101532.38;5033714;28;20045;-71
2023/02/23 10:20:27;;;;;;;23.80;17.27;;;11.30;99.90;;;11.73;93.22;101538.63;5033671;28;20057;-73
2023/02/23 10:23:03;;;;;;;26.15;18.38;;;11.50;99.90;;;11.54;91.56;101544.72;5033302;28;20041;-69
2023/02/23 10:25:40;;;;;;;26.92;18.40;;;11.40;99.90;;;11.35;91.28;101532.31;5033933;28;20138;-69
2023/02/23 10:28:15;;;;;;;28.45;18.45;;;11.30;99.90;;;11.51;92.03;101544.72;5033553;28;20544;-70
2023/02/23 10:30:45;;;;;;;23.08;17.55;;;11.30;99.90;;;11.54;91.77;101546.47;5032222;28;20095;-72
2023/02/23 10:33:21;;;;;;;29.95;18.40;;;11.30;99.90;;;11.37;92.13;101549.09;5033069;28;20081;-71
2023/02/23 10:35:54;;;;;;;29.58;18.98;;;11.20;99.90;;;10.36;92.05;101428.66;5033132;28;20408;-70
2023/02/23 10:38:39;;;;;;;28.38;19.65;;;11.00;99.90;;;11.25;92.93;101554.34;5033085;28;20420;-68
2023/02/23 10:41:10;;;;;;;29.15;19.77;;;11.00;99.90;;;11.39;92.53;101557.94;5033405;28;20033;-69
2023/02/23 10:43:42;;;;;;;32.33;20.15;;;11.10;99.90;;;11.29;92.93;101558.78;5032997;28;20041;-70
2023/02/23 10:46:21;;;;;;;29.70;20.27;;;11.10;99.90;;;11.39;93.15;101565.00;5033169;28;20116;-70
2023/02/23 10:48:51;;;;;;;32.47;20.85;;;11.10;99.90;;;11.51;92.11;101559.75;5033312;28;20045;-71
2023/02/23 10:51:27;;;;;;;31.67;19.50;;;11.30;99.90;;;11.33;93.02;101570.25;5032269;28;20053;-70
2023/02/23 10:53:56;;;;;;;30.08;19.60;;;11.10;99.90;;;11.55;92.41;101567.72;5032817;28;20499;-70
2023/02/23 10:56:44;;;;;;;29.45;19.35;;;11.30;99.90;;;11.44;92.63;101561.47;5031667;28;20058;-70
2023/02/23 10:59:20;;;;;;;30.33;19.25;;;11.20;99.90;;;11.40;92.37;101557.03;5032784;28;20124;-70
2023/02/23 11:01:48;;;;;;;30.73;19.25;;;11.30;99.90;;;11.30;93.83;101562.31;5032768;28;20045;-70
2023/02/23 11:04:30;;;;;;;;;;;11.10;99.90;;;11.28;93.79;101529.66;5033690;28;20037;-70
2023/02/23 11:07:09;;;;;;;34.78;20.58;;;11.30;99.90;;;11.15;94.30;101564.91;5032896;28;19921;-70
2023/02/23 11:09:39;;;;;;;28.10;19.65;;;11.10;99.90;;;11.06;95.61;101562.19;5032949;28;20088;-70
2023/02/23 11:12:24;;;;;;;33.45;19.35;;;10.90;99.90;;;11.06;96.03;101570.16;5032538;28;20052;-70
2023/02/23 11:14:54;;;;;;;28.48;19.23;;;10.80;99.90;;;11.38;95.77;101569.41;5032817;28;20053;-70
2023/02/23 11:17:31;;;;;;;35.72;20.38;;;11.10;99.90;;;11.54;94.89;101568.56;5032477;28;20042;-70
2023/02/23 11:20:07;;;;;;;33.15;21.05;;;11.30;99.90;;;11.41;94.65;101542.94;5032744;28;20092;-69
2023/02/23 11:22:41;;;;;;;33.70;20.77;;;11.40;99.90;;;11.64;94.39;101573.03;5032237;28;20056;-69
2023/02/23 11:25:17;;;;;;;31.80;20.42;;;11.40;99.90;;;11.64;94.10;101578.31;5033065;28;20049;-70
2023/02/23 11:27:50;;;;;;;35.42;21.42;;;11.50;99.90;;;11.37;94.31;101559.69;5032459;28;20463;-70
2023/02/23 11:30:23;;;;;;;35.05;21.02;;;11.40;99.90;;;11.30;95.74;101563.22;5032396;28;20465;-69
2023/02/23 11:32:54;;;;;;;34.55;21.10;;;11.10;99.90;;;11.51;95.74;101559.75;5032008;28;20057;-69
2023/02/23 11:35:30;;;;;;;35.03;22.38;;;11.20;99.90;;;11.66;94.93;101563.34;5032343;28;20067;-69
2023/02/23 11:37:59;;;;;;;41.05;22.65;;;11.40;99.90;;;11.13;95.84;101559.59;5032632;28;20476;-70
2023/02/23 11:40:31;;;;;;;35.42;22.35;;;11.10;99.90;;;11.28;95.58;101561.44;5032867;28;20045;-69